LNI970 WIDD-WARR
Flight info
| Callsign | LNI970 |
|---|---|
| Flight time | N/A |
| Altitude | 35000 |
| Route | IDBUD T24 SURGA M635 SUMDI |
| Aircraft | B738/M-SDE2E3FGHIRWXY/LB1 |
Departure
| Time | 2026-04-16 00:46 |
|---|---|
| Airport | Hang Nadim International Airport (WIDD) |
Arrival
| Time | N/A |
|---|---|
| Airport | Juanda International Airport (WARR) |
| Time | Latitude | Longitude | Altitude | Speed | Heading |
|---|---|---|---|---|---|
| 2026-04-16 00:21 | 1.12358 | 104.11696 | 127 ft | 0 kts | 312° |
| 2026-04-16 00:34 | 1.12357 | 104.11697 | 127 ft | 0 kts | 312° |
| 2026-04-16 00:34 | 1.12356 | 104.11698 | 127 ft | 0 kts | 312° |
| 2026-04-16 00:35 | 1.12355 | 104.11699 | 127 ft | 0 kts | 312° |
| 2026-04-16 00:35 | 1.12355 | 104.11700 | 127 ft | 0 kts | 312° |
| 2026-04-16 00:35 | 1.12346 | 104.11709 | 127 ft | 2 kts | 312° |
| 2026-04-16 00:35 | 1.12336 | 104.11720 | 127 ft | 2 kts | 312° |
| 2026-04-16 00:36 | 1.12325 | 104.11730 | 127 ft | 2 kts | 335° |
| 2026-04-16 00:36 | 1.12310 | 104.11735 | 127 ft | 2 kts | 356° |
| 2026-04-16 00:36 | 1.12295 | 104.11733 | 127 ft | 2 kts | 18° |
| 2026-04-16 00:36 | 1.12283 | 104.11727 | 127 ft | 0 kts | 38° |
| 2026-04-16 00:37 | 1.12278 | 104.11723 | 127 ft | 1 kts | 43° |
| 2026-04-16 00:37 | 1.12277 | 104.11723 | 127 ft | 0 kts | 42° |
| 2026-04-16 00:39 | 1.12278 | 104.11723 | 127 ft | 1 kts | 42° |
| 2026-04-16 00:39 | 1.12294 | 104.11737 | 127 ft | 4 kts | 42° |
| 2026-04-16 00:39 | 1.12326 | 104.11766 | 127 ft | 7 kts | 41° |
| 2026-04-16 00:40 | 1.12341 | 104.11803 | 127 ft | 5 kts | 97° |
| 2026-04-16 00:40 | 1.12326 | 104.11846 | 127 ft | 7 kts | 87° |
| 2026-04-16 00:40 | 1.12361 | 104.11895 | 127 ft | 9 kts | 40° |
| 2026-04-16 00:40 | 1.12417 | 104.11944 | 127 ft | 11 kts | 41° |
| 2026-04-16 00:41 | 1.12484 | 104.12003 | 127 ft | 14 kts | 41° |
| 2026-04-16 00:41 | 1.12563 | 104.12073 | 127 ft | 16 kts | 41° |
| 2026-04-16 00:41 | 1.12651 | 104.12151 | 127 ft | 18 kts | 41° |
| 2026-04-16 00:41 | 1.12751 | 104.12239 | 127 ft | 19 kts | 41° |
| 2026-04-16 00:42 | 1.12860 | 104.12334 | 127 ft | 21 kts | 41° |
| 2026-04-16 00:42 | 1.12972 | 104.12433 | 127 ft | 20 kts | 41° |
| 2026-04-16 00:42 | 1.13067 | 104.12517 | 127 ft | 16 kts | 41° |
| 2026-04-16 00:42 | 1.13144 | 104.12586 | 127 ft | 13 kts | 41° |
| 2026-04-16 00:43 | 1.13203 | 104.12638 | 127 ft | 9 kts | 41° |
| 2026-04-16 00:43 | 1.13238 | 104.12679 | 127 ft | 6 kts | 63° |
| 2026-04-16 00:43 | 1.13245 | 104.12711 | 127 ft | 3 kts | 94° |
| 2026-04-16 00:43 | 1.13236 | 104.12734 | 127 ft | 4 kts | 121° |
| 2026-04-16 00:44 | 1.13216 | 104.12759 | 127 ft | 4 kts | 131° |
| 2026-04-16 00:44 | 1.13192 | 104.12786 | 127 ft | 5 kts | 131° |
| 2026-04-16 00:44 | 1.13161 | 104.12809 | 127 ft | 5 kts | 173° |
| 2026-04-16 00:44 | 1.13129 | 104.12791 | 127 ft | 0 kts | 220° |
| 2026-04-16 00:45 | 1.13122 | 104.12785 | 127 ft | 5 kts | 220° |
| 2026-04-16 00:45 | 1.12923 | 104.12610 | 127 ft | 73 kts | 221° |
| 2026-04-16 00:45 | 1.12371 | 104.12122 | 127 ft | 136 kts | 222° |
| 2026-04-16 00:46 | 1.11498 | 104.11352 | 187 ft | 188 kts | 221° |
| 2026-04-16 00:46 | 1.10486 | 104.10452 | 772 ft | 202 kts | 221° |
| 2026-04-16 00:46 | 1.09434 | 104.09499 | 1431 ft | 213 kts | 220° |
| 2026-04-16 00:46 | 1.08311 | 104.08484 | 1989 ft | 223 kts | 220° |
| 2026-04-16 00:47 | 1.07082 | 104.07435 | 2379 ft | 240 kts | 214° |
| 2026-04-16 00:47 | 1.05539 | 104.06707 | 2924 ft | 249 kts | 189° |
| 2026-04-16 00:47 | 1.03826 | 104.06715 | 3573 ft | 255 kts | 168° |
| 2026-04-16 00:47 | 1.02119 | 104.07336 | 3961 ft | 265 kts | 150° |
| 2026-04-16 00:48 | 1.00720 | 104.08553 | 3989 ft | 266 kts | 124° |
| 2026-04-16 00:48 | 0.99898 | 104.10184 | 3980 ft | 267 kts | 112° |
| 2026-04-16 00:48 | 0.99211 | 104.11924 | 3996 ft | 266 kts | 112° |
| 2026-04-16 00:48 | 0.98525 | 104.13659 | 3998 ft | 267 kts | 112° |
| 2026-04-16 00:49 | 0.97820 | 104.15376 | 3991 ft | 265 kts | 113° |
| 2026-04-16 00:50 | 0.92000 | 104.27093 | 5761 ft | 276 kts | 123° |
| 2026-04-16 00:51 | 0.90956 | 104.28722 | 6168 ft | 291 kts | 123° |
| 2026-04-16 00:51 | 0.89848 | 104.30472 | 6524 ft | 297 kts | 123° |
| 2026-04-16 00:51 | 0.88774 | 104.32188 | 6494 ft | 285 kts | 122° |
| 2026-04-16 00:51 | 0.87743 | 104.33846 | 6495 ft | 276 kts | 122° |
| 2026-04-16 00:52 | 0.86729 | 104.35477 | 6494 ft | 279 kts | 122° |
| 2026-04-16 00:52 | 0.85694 | 104.37140 | 6487 ft | 278 kts | 122° |
| 2026-04-16 00:52 | 0.84671 | 104.38783 | 6488 ft | 278 kts | 122° |
| 2026-04-16 00:52 | 0.83656 | 104.40412 | 6485 ft | 277 kts | 122° |
| 2026-04-16 00:53 | 0.82636 | 104.42048 | 6481 ft | 278 kts | 122° |
| 2026-04-16 00:53 | 0.81605 | 104.43690 | 6482 ft | 279 kts | 123° |
| 2026-04-16 00:53 | 0.80465 | 104.45354 | 6900 ft | 290 kts | 126° |
| 2026-04-16 00:53 | 0.79308 | 104.46953 | 7799 ft | 286 kts | 127° |
| 2026-04-16 00:54 | 0.78146 | 104.48547 | 8491 ft | 289 kts | 127° |
| 2026-04-16 00:54 | 0.76965 | 104.50178 | 9172 ft | 292 kts | 127° |
| 2026-04-16 00:54 | 0.75776 | 104.51832 | 9760 ft | 297 kts | 127° |
| 2026-04-16 00:54 | 0.74548 | 104.53548 | 9971 ft | 299 kts | 126° |
| 2026-04-16 00:55 | 0.73338 | 104.55230 | 9978 ft | 297 kts | 128° |
| 2026-04-16 00:55 | 0.71945 | 104.56750 | 9974 ft | 294 kts | 143° |
| 2026-04-16 00:55 | 0.70132 | 104.57703 | 9984 ft | 293 kts | 162° |
| 2026-04-16 00:55 | 0.68165 | 104.58254 | 9974 ft | 293 kts | 167° |
| 2026-04-16 00:56 | 0.66187 | 104.58732 | 9973 ft | 293 kts | 167° |
| 2026-04-16 00:56 | 0.64185 | 104.59245 | 9976 ft | 294 kts | 165° |
| 2026-04-16 00:56 | 0.62232 | 104.59790 | 9973 ft | 293 kts | 164° |
| 2026-04-16 00:56 | 0.60259 | 104.60366 | 9975 ft | 293 kts | 164° |
| 2026-04-16 00:57 | 0.56314 | 104.61541 | 9975 ft | 294 kts | 164° |
| 2026-04-16 00:57 | 0.54354 | 104.62126 | 9976 ft | 294 kts | 163° |
| 2026-04-16 00:57 | 0.52382 | 104.62714 | 9978 ft | 295 kts | 164° |
| 2026-04-16 00:58 | 0.50409 | 104.63301 | 9979 ft | 293 kts | 164° |
| 2026-04-16 00:58 | 0.48485 | 104.63944 | 9980 ft | 295 kts | 157° |
| 2026-04-16 00:58 | 0.46730 | 104.65049 | 9983 ft | 299 kts | 135° |
| 2026-04-16 00:58 | 0.45480 | 104.66769 | 10263 ft | 316 kts | 121° |
| 2026-04-16 00:59 | 0.44376 | 104.68739 | 10557 ft | 333 kts | 119° |
| 2026-04-16 00:59 | 0.43225 | 104.70821 | 10876 ft | 348 kts | 119° |
| 2026-04-16 00:59 | 0.42024 | 104.72958 | 11164 ft | 363 kts | 120° |
| 2026-04-16 00:59 | 0.40739 | 104.75205 | 11536 ft | 375 kts | 120° |
| 2026-04-16 01:00 | 0.39420 | 104.77491 | 12049 ft | 382 kts | 120° |
| 2026-04-16 01:00 | 0.38101 | 104.79769 | 12637 ft | 386 kts | 120° |
| 2026-04-16 01:00 | 0.36742 | 104.82114 | 13244 ft | 391 kts | 119° |
| 2026-04-16 01:00 | 0.35378 | 104.84470 | 13922 ft | 392 kts | 120° |
| 2026-04-16 01:01 | 0.34014 | 104.86828 | 14543 ft | 396 kts | 120° |
| 2026-04-16 01:01 | 0.32634 | 104.89211 | 15188 ft | 398 kts | 120° |
| 2026-04-16 01:01 | 0.31249 | 104.91608 | 15820 ft | 401 kts | 120° |
| 2026-04-16 01:01 | 0.29840 | 104.94043 | 16410 ft | 404 kts | 120° |
| 2026-04-16 01:02 | 0.28447 | 104.96454 | 17003 ft | 407 kts | 120° |
| 2026-04-16 01:02 | 0.27019 | 104.98923 | 17586 ft | 410 kts | 120° |
| 2026-04-16 01:02 | 0.25600 | 105.01376 | 18143 ft | 413 kts | 120° |
| 2026-04-16 01:02 | 0.24154 | 105.03877 | 18686 ft | 416 kts | 120° |
| 2026-04-16 01:03 | 0.22714 | 105.06368 | 19238 ft | 418 kts | 120° |
| 2026-04-16 01:03 | 0.21238 | 105.08920 | 19796 ft | 421 kts | 120° |
| 2026-04-16 01:03 | 0.19762 | 105.11470 | 20304 ft | 424 kts | 120° |
| 2026-04-16 01:03 | 0.18275 | 105.14037 | 20790 ft | 428 kts | 120° |
| 2026-04-16 01:04 | 0.16776 | 105.16625 | 21305 ft | 430 kts | 120° |
| 2026-04-16 01:04 | 0.15282 | 105.19207 | 21810 ft | 432 kts | 120° |
| 2026-04-16 01:04 | 0.13764 | 105.21828 | 22267 ft | 435 kts | 120° |
| 2026-04-16 01:04 | 0.12243 | 105.24458 | 22745 ft | 437 kts | 120° |
| 2026-04-16 01:05 | 0.10726 | 105.27079 | 23194 ft | 440 kts | 120° |
| 2026-04-16 01:05 | 0.09198 | 105.29722 | 23648 ft | 443 kts | 120° |
| 2026-04-16 01:05 | 0.07648 | 105.32400 | 24103 ft | 445 kts | 120° |
| 2026-04-16 01:05 | 0.06098 | 105.35081 | 24512 ft | 448 kts | 120° |
| 2026-04-16 01:06 | 0.04523 | 105.37804 | 24934 ft | 451 kts | 120° |
| 2026-04-16 01:06 | 0.02972 | 105.40484 | 25378 ft | 453 kts | 120° |
| 2026-04-16 01:06 | 0.01389 | 105.43222 | 25762 ft | 456 kts | 120° |
| 2026-04-16 01:06 | -0.00204 | 105.45976 | 26159 ft | 459 kts | 120° |
| 2026-04-16 01:07 | -0.01801 | 105.48737 | 26555 ft | 461 kts | 120° |
| 2026-04-16 01:07 | -0.03428 | 105.51548 | 26898 ft | 464 kts | 120° |
| 2026-04-16 01:07 | -0.05024 | 105.54308 | 27333 ft | 465 kts | 120° |
| 2026-04-16 01:07 | -0.06662 | 105.57139 | 27664 ft | 468 kts | 120° |
| 2026-04-16 01:08 | -0.08278 | 105.59933 | 28069 ft | 470 kts | 120° |
| 2026-04-16 01:08 | -0.09918 | 105.62769 | 28353 ft | 473 kts | 120° |
| 2026-04-16 01:08 | -0.11549 | 105.65588 | 28925 ft | 470 kts | 120° |
| 2026-04-16 01:08 | -0.13190 | 105.68426 | 29532 ft | 466 kts | 119° |
| 2026-04-16 01:09 | -0.14796 | 105.71204 | 30088 ft | 463 kts | 119° |
| 2026-04-16 01:09 | -0.16402 | 105.73981 | 30616 ft | 461 kts | 119° |
| 2026-04-16 01:09 | -0.18001 | 105.76745 | 31103 ft | 459 kts | 119° |
| 2026-04-16 01:09 | -0.19600 | 105.79511 | 31573 ft | 457 kts | 119° |
| 2026-04-16 01:10 | -0.21172 | 105.82227 | 32031 ft | 455 kts | 118° |
| 2026-04-16 01:10 | -0.22754 | 105.84963 | 32497 ft | 453 kts | 118° |
| 2026-04-16 01:10 | -0.24331 | 105.87690 | 32974 ft | 451 kts | 118° |
| 2026-04-16 01:10 | -0.25893 | 105.90391 | 33445 ft | 450 kts | 118° |
| 2026-04-16 01:11 | -0.27456 | 105.93095 | 33861 ft | 449 kts | 118° |
| 2026-04-16 01:11 | -0.29016 | 105.95792 | 34280 ft | 448 kts | 118° |
| 2026-04-16 01:11 | -0.30584 | 105.98503 | 34641 ft | 448 kts | 118° |
| 2026-04-16 01:11 | -0.32132 | 106.01182 | 34982 ft | 448 kts | 119° |
| 2026-04-16 01:12 | -0.33701 | 106.03897 | 34979 ft | 450 kts | 118° |
| 2026-04-16 01:12 | -0.36812 | 106.09278 | 34992 ft | 446 kts | 119° |
| 2026-04-16 01:13 | -0.39902 | 106.14625 | 34992 ft | 447 kts | 119° |
| 2026-04-16 01:13 | -0.43010 | 106.19999 | 34992 ft | 446 kts | 119° |
| 2026-04-16 01:14 | -0.46116 | 106.25370 | 34993 ft | 448 kts | 119° |
| 2026-04-16 01:14 | -0.49230 | 106.30756 | 34992 ft | 446 kts | 119° |
| 2026-04-16 01:15 | -0.52318 | 106.36098 | 34991 ft | 446 kts | 119° |
| 2026-04-16 01:15 | -0.55426 | 106.41473 | 34991 ft | 448 kts | 119° |
| 2026-04-16 01:16 | -0.58547 | 106.46870 | 34991 ft | 446 kts | 119° |
| 2026-04-16 01:16 | -0.61773 | 106.52174 | 34991 ft | 448 kts | 124° |
| 2026-04-16 01:17 | -0.65652 | 106.57040 | 34991 ft | 448 kts | 129° |
| 2026-04-16 01:17 | -0.69852 | 106.61718 | 34992 ft | 448 kts | 130° |
| 2026-04-16 01:18 | -0.74035 | 106.66311 | 34990 ft | 447 kts | 130° |
| 2026-04-16 01:18 | -0.78214 | 106.70940 | 34991 ft | 449 kts | 130° |
| 2026-04-16 01:19 | -0.82371 | 106.75585 | 34992 ft | 448 kts | 130° |
| 2026-04-16 01:19 | -0.86515 | 106.80240 | 34991 ft | 447 kts | 130° |
| 2026-04-16 01:20 | -0.90655 | 106.84901 | 34991 ft | 448 kts | 130° |
| 2026-04-16 01:20 | -0.94802 | 106.89575 | 34993 ft | 448 kts | 130° |
| 2026-04-16 01:21 | -0.98917 | 106.94216 | 34991 ft | 446 kts | 130° |
| 2026-04-16 01:21 | -1.03066 | 106.98894 | 34991 ft | 447 kts | 130° |
| 2026-04-16 01:22 | -1.07175 | 107.03527 | 34992 ft | 448 kts | 130° |
| 2026-04-16 01:22 | -1.11311 | 107.08191 | 34992 ft | 448 kts | 130° |
| 2026-04-16 01:23 | -1.15441 | 107.12849 | 34993 ft | 447 kts | 130° |
| 2026-04-16 01:23 | -1.19567 | 107.17503 | 34993 ft | 446 kts | 130° |
| 2026-04-16 01:24 | -1.23682 | 107.22144 | 34993 ft | 447 kts | 130° |
| 2026-04-16 01:24 | -1.27832 | 107.26824 | 34994 ft | 447 kts | 130° |
| 2026-04-16 01:25 | -1.31949 | 107.31467 | 34994 ft | 447 kts | 130° |
| 2026-04-16 01:25 | -1.36078 | 107.36124 | 34995 ft | 447 kts | 130° |
| 2026-04-16 01:26 | -1.40173 | 107.40792 | 34999 ft | 447 kts | 129° |
| 2026-04-16 01:26 | -1.44222 | 107.45492 | 35002 ft | 447 kts | 129° |
| 2026-04-16 01:27 | -1.48273 | 107.50208 | 34995 ft | 447 kts | 129° |
| 2026-04-16 01:27 | -1.52344 | 107.54939 | 34992 ft | 447 kts | 129° |
| 2026-04-16 01:28 | -1.56405 | 107.59650 | 34991 ft | 447 kts | 129° |
| 2026-04-16 01:28 | -1.60440 | 107.64329 | 34992 ft | 446 kts | 129° |
| 2026-04-16 01:29 | -1.64506 | 107.69041 | 34991 ft | 446 kts | 129° |
| 2026-04-16 01:29 | -1.68574 | 107.73755 | 34993 ft | 446 kts | 129° |
| 2026-04-16 01:30 | -1.72619 | 107.78443 | 34993 ft | 446 kts | 129° |
| 2026-04-16 01:30 | -1.76689 | 107.83162 | 34992 ft | 446 kts | 129° |
| 2026-04-16 01:31 | -1.80733 | 107.87850 | 34992 ft | 445 kts | 129° |
| 2026-04-16 01:31 | -1.84782 | 107.92545 | 34992 ft | 448 kts | 129° |
| 2026-04-16 01:32 | -1.88817 | 107.97224 | 34992 ft | 446 kts | 129° |
| 2026-04-16 01:32 | -1.92864 | 108.01915 | 34992 ft | 446 kts | 129° |
| 2026-04-16 01:33 | -1.96932 | 108.06633 | 34992 ft | 446 kts | 129° |
| 2026-04-16 01:33 | -2.00964 | 108.11307 | 34993 ft | 444 kts | 129° |
| 2026-04-16 01:34 | -2.05013 | 108.16004 | 34991 ft | 446 kts | 129° |
| 2026-04-16 01:34 | -2.09063 | 108.20701 | 34991 ft | 445 kts | 129° |
| 2026-04-16 01:35 | -2.13114 | 108.25394 | 34992 ft | 445 kts | 129° |
| 2026-04-16 01:35 | -2.17172 | 108.30096 | 34991 ft | 445 kts | 129° |
| 2026-04-16 01:36 | -2.21213 | 108.34781 | 34992 ft | 444 kts | 129° |
| 2026-04-16 01:36 | -2.25237 | 108.39447 | 34992 ft | 444 kts | 129° |
| 2026-04-16 01:37 | -2.29272 | 108.44125 | 34997 ft | 443 kts | 129° |
| 2026-04-16 01:37 | -2.33317 | 108.48814 | 34998 ft | 444 kts | 129° |
| 2026-04-16 01:38 | -2.37354 | 108.53496 | 34999 ft | 444 kts | 129° |
| 2026-04-16 01:38 | -2.41382 | 108.58167 | 34999 ft | 443 kts | 129° |
| 2026-04-16 01:39 | -2.45404 | 108.62835 | 35001 ft | 443 kts | 129° |
| 2026-04-16 01:39 | -2.49425 | 108.67499 | 35001 ft | 443 kts | 129° |
| 2026-04-16 01:40 | -2.53486 | 108.72197 | 35005 ft | 444 kts | 129° |
| 2026-04-16 01:40 | -2.57505 | 108.76838 | 34956 ft | 443 kts | 129° |
| 2026-04-16 01:41 | -2.61550 | 108.81511 | 34958 ft | 443 kts | 129° |
| 2026-04-16 01:41 | -2.65571 | 108.86159 | 34959 ft | 442 kts | 129° |
| 2026-04-16 01:42 | -2.69612 | 108.90831 | 34958 ft | 443 kts | 129° |
| 2026-04-16 01:42 | -2.73634 | 108.95481 | 34957 ft | 443 kts | 129° |
| 2026-04-16 01:43 | -2.77655 | 109.00130 | 34958 ft | 442 kts | 129° |
| 2026-04-16 01:43 | -2.81701 | 109.04810 | 34959 ft | 442 kts | 129° |
| 2026-04-16 01:44 | -2.85723 | 109.09463 | 34959 ft | 442 kts | 129° |
| 2026-04-16 01:44 | -2.89753 | 109.14127 | 34959 ft | 443 kts | 129° |
| 2026-04-16 01:45 | -2.93093 | 109.17999 | 34959 ft | 442 kts | 129° |
| 2026-04-16 01:45 | -2.97789 | 109.23458 | 34959 ft | 443 kts | 129° |
| 2026-04-16 01:46 | -3.01824 | 109.28149 | 34959 ft | 443 kts | 129° |
| 2026-04-16 01:46 | -3.05836 | 109.32812 | 34958 ft | 442 kts | 129° |
| 2026-04-16 01:47 | -3.09838 | 109.37464 | 34953 ft | 443 kts | 129° |
| 2026-04-16 01:47 | -3.13858 | 109.42137 | 34948 ft | 443 kts | 129° |
| 2026-04-16 01:48 | -3.17827 | 109.46751 | 34950 ft | 443 kts | 129° |
| 2026-04-16 01:48 | -3.21812 | 109.51386 | 34951 ft | 444 kts | 129° |
| 2026-04-16 01:49 | -3.25839 | 109.56068 | 34947 ft | 444 kts | 129° |
| 2026-04-16 01:49 | -3.29864 | 109.60747 | 34941 ft | 444 kts | 129° |
| 2026-04-16 01:50 | -3.33899 | 109.65440 | 34942 ft | 444 kts | 129° |
| 2026-04-16 01:50 | -3.37931 | 109.70129 | 34942 ft | 443 kts | 129° |
| 2026-04-16 01:51 | -3.41946 | 109.74801 | 34941 ft | 443 kts | 129° |
| 2026-04-16 01:51 | -3.45973 | 109.79488 | 34938 ft | 445 kts | 129° |
| 2026-04-16 01:52 | -3.50009 | 109.84182 | 34938 ft | 444 kts | 129° |
| 2026-04-16 01:52 | -3.54042 | 109.88876 | 34937 ft | 445 kts | 129° |
| 2026-04-16 01:53 | -3.58085 | 109.93583 | 34937 ft | 444 kts | 129° |
| 2026-04-16 01:53 | -3.62119 | 109.98279 | 34938 ft | 444 kts | 129° |
| 2026-04-16 01:54 | -3.66140 | 110.02960 | 34939 ft | 444 kts | 129° |
| 2026-04-16 01:54 | -3.70181 | 110.07667 | 34937 ft | 444 kts | 129° |
| 2026-04-16 01:55 | -3.74214 | 110.12364 | 34945 ft | 443 kts | 129° |
| 2026-04-16 01:55 | -3.78220 | 110.17031 | 34952 ft | 445 kts | 129° |
| 2026-04-16 01:56 | -3.82273 | 110.21753 | 34953 ft | 444 kts | 129° |
| 2026-04-16 01:56 | -3.86305 | 110.26450 | 34955 ft | 444 kts | 129° |
| 2026-04-16 01:57 | -3.90313 | 110.31123 | 34958 ft | 445 kts | 129° |
| 2026-04-16 01:57 | -3.94364 | 110.35845 | 34958 ft | 444 kts | 129° |
| 2026-04-16 01:58 | -3.98375 | 110.40595 | 34958 ft | 444 kts | 128° |
| 2026-04-16 01:58 | -4.02170 | 110.45476 | 34959 ft | 443 kts | 126° |
| 2026-04-16 01:59 | -4.05905 | 110.50402 | 34958 ft | 444 kts | 126° |
| 2026-04-16 01:59 | -4.09647 | 110.55317 | 34958 ft | 444 kts | 126° |
| 2026-04-16 02:00 | -4.13412 | 110.60228 | 34959 ft | 445 kts | 126° |
| 2026-04-16 02:00 | -4.17186 | 110.65130 | 34959 ft | 444 kts | 126° |
| 2026-04-16 02:01 | -4.20962 | 110.70026 | 34959 ft | 444 kts | 126° |
| 2026-04-16 02:01 | -4.24773 | 110.74966 | 34958 ft | 445 kts | 126° |
| 2026-04-16 02:02 | -4.28557 | 110.79869 | 34959 ft | 445 kts | 126° |
| 2026-04-16 02:02 | -4.32320 | 110.84750 | 34958 ft | 445 kts | 127° |
| 2026-04-16 02:03 | -4.36127 | 110.89688 | 34958 ft | 447 kts | 127° |
| 2026-04-16 02:03 | -4.39284 | 110.93783 | 34958 ft | 445 kts | 127° |
| 2026-04-16 02:04 | -4.45601 | 111.01979 | 34958 ft | 446 kts | 127° |
| 2026-04-16 02:04 | -4.49415 | 111.06928 | 34959 ft | 446 kts | 127° |
| 2026-04-16 02:05 | -4.53202 | 111.11845 | 34958 ft | 445 kts | 127° |
| 2026-04-16 02:05 | -4.56979 | 111.16747 | 34959 ft | 445 kts | 127° |
| 2026-04-16 02:06 | -4.60769 | 111.21667 | 34959 ft | 446 kts | 127° |
| 2026-04-16 02:06 | -4.64533 | 111.26605 | 34958 ft | 445 kts | 126° |
| 2026-04-16 02:07 | -4.68236 | 111.31580 | 34959 ft | 446 kts | 126° |
| 2026-04-16 02:07 | -4.71926 | 111.36560 | 34959 ft | 446 kts | 126° |
| 2026-04-16 02:08 | -4.75030 | 111.40743 | 34959 ft | 445 kts | 126° |
| 2026-04-16 02:08 | -4.79344 | 111.46545 | 34958 ft | 445 kts | 126° |
| 2026-04-16 02:09 | -4.82441 | 111.50706 | 34959 ft | 445 kts | 126° |
| 2026-04-16 02:09 | -4.86777 | 111.56531 | 34958 ft | 444 kts | 126° |
| 2026-04-16 02:10 | -4.90471 | 111.61493 | 34960 ft | 445 kts | 126° |
| 2026-04-16 02:10 | -4.94165 | 111.66457 | 34959 ft | 445 kts | 126° |
| 2026-04-16 02:11 | -4.97272 | 111.70631 | 34958 ft | 445 kts | 126° |
| 2026-04-16 02:11 | -5.01584 | 111.76425 | 34959 ft | 445 kts | 126° |
| 2026-04-16 02:12 | -5.05297 | 111.81417 | 34959 ft | 446 kts | 126° |
| 2026-04-16 02:12 | -5.09009 | 111.86409 | 34961 ft | 444 kts | 126° |
| 2026-04-16 02:13 | -5.12706 | 111.91380 | 34963 ft | 445 kts | 125° |
| 2026-04-16 02:13 | -5.16398 | 111.96346 | 34968 ft | 443 kts | 125° |
| 2026-04-16 02:14 | -5.19479 | 112.00494 | 34974 ft | 444 kts | 126° |
| 2026-04-16 02:14 | -5.23787 | 112.06293 | 34979 ft | 445 kts | 125° |
| 2026-04-16 02:15 | -5.27495 | 112.11283 | 34979 ft | 445 kts | 125° |
| 2026-04-16 02:15 | -5.31207 | 112.16280 | 34980 ft | 444 kts | 125° |
| 2026-04-16 02:16 | -5.34895 | 112.21246 | 34979 ft | 444 kts | 125° |
| 2026-04-16 02:16 | -5.38593 | 112.26228 | 34977 ft | 443 kts | 125° |
| 2026-04-16 02:17 | -5.42261 | 112.31168 | 34972 ft | 443 kts | 125° |
| 2026-04-16 02:17 | -5.45351 | 112.35334 | 34970 ft | 445 kts | 126° |
| 2026-04-16 02:18 | -5.49664 | 112.41148 | 34972 ft | 444 kts | 126° |
| 2026-04-16 02:18 | -5.53377 | 112.46156 | 34972 ft | 444 kts | 126° |
| 2026-04-16 02:19 | -5.57043 | 112.51099 | 34977 ft | 443 kts | 126° |
| 2026-04-16 02:19 | -5.60726 | 112.56067 | 34975 ft | 444 kts | 125° |
| 2026-04-16 02:20 | -5.64430 | 112.61064 | 34974 ft | 444 kts | 125° |
| 2026-04-16 02:20 | -5.68113 | 112.66035 | 34969 ft | 445 kts | 125° |
| 2026-04-16 02:21 | -5.71802 | 112.71014 | 34966 ft | 443 kts | 125° |
| 2026-04-16 02:21 | -5.75486 | 112.75987 | 34962 ft | 443 kts | 125° |
| 2026-04-16 02:22 | -5.79170 | 112.80963 | 34961 ft | 443 kts | 125° |
| 2026-04-16 02:22 | -5.82369 | 112.85038 | 34961 ft | 444 kts | 131° |
| 2026-04-16 02:23 | -5.85487 | 112.87738 | 34932 ft | 447 kts | 146° |
| 2026-04-16 02:23 | -5.88230 | 112.89198 | 34540 ft | 446 kts | 155° |
| 2026-04-16 02:23 | -5.91176 | 112.90192 | 33857 ft | 447 kts | 163° |
| 2026-04-16 02:23 | -5.94202 | 112.90818 | 32974 ft | 452 kts | 169° |
| 2026-04-16 02:24 | -5.97373 | 112.91062 | 32163 ft | 456 kts | 177° |
| 2026-04-16 02:24 | -6.00534 | 112.90878 | 31359 ft | 460 kts | 182° |
| 2026-04-16 02:24 | -6.03764 | 112.90473 | 30488 ft | 464 kts | 185° |
| 2026-04-16 02:24 | -6.06964 | 112.89970 | 29598 ft | 467 kts | 186° |
| 2026-04-16 02:25 | -6.10150 | 112.89428 | 28684 ft | 470 kts | 187° |
| 2026-04-16 02:25 | -6.13353 | 112.88872 | 28223 ft | 464 kts | 187° |
| 2026-04-16 02:25 | -6.16571 | 112.88322 | 27522 ft | 467 kts | 187° |
| 2026-04-16 02:25 | -6.19789 | 112.87782 | 26861 ft | 464 kts | 187° |
| 2026-04-16 02:26 | -6.22970 | 112.87261 | 26185 ft | 462 kts | 186° |
| 2026-04-16 02:26 | -6.26148 | 112.86751 | 25494 ft | 460 kts | 186° |
| 2026-04-16 02:26 | -6.29327 | 112.86249 | 24787 ft | 458 kts | 186° |
| 2026-04-16 02:26 | -6.32441 | 112.85763 | 24095 ft | 457 kts | 186° |
| 2026-04-16 02:27 | -6.35594 | 112.85274 | 23387 ft | 455 kts | 186° |
| 2026-04-16 02:27 | -6.38729 | 112.84790 | 22685 ft | 453 kts | 186° |
| 2026-04-16 02:27 | -6.41824 | 112.84313 | 21998 ft | 451 kts | 186° |
| 2026-04-16 02:27 | -6.44904 | 112.83840 | 21305 ft | 449 kts | 187° |
| 2026-04-16 02:28 | -6.47987 | 112.83367 | 20600 ft | 447 kts | 187° |
| 2026-04-16 02:28 | -6.51100 | 112.82891 | 19883 ft | 446 kts | 187° |
| 2026-04-16 02:28 | -6.54169 | 112.82421 | 19175 ft | 444 kts | 187° |
| 2026-04-16 02:28 | -6.57204 | 112.81956 | 18530 ft | 440 kts | 187° |
| 2026-04-16 02:29 | -6.60214 | 112.81494 | 17930 ft | 436 kts | 188° |
| 2026-04-16 02:29 | -6.63203 | 112.80972 | 17233 ft | 434 kts | 192° |
| 2026-04-16 02:29 | -6.66066 | 112.80045 | 16518 ft | 433 kts | 204° |
| 2026-04-16 02:29 | -6.68545 | 112.78361 | 15815 ft | 432 kts | 223° |
| 2026-04-16 02:30 | -6.70347 | 112.75966 | 15143 ft | 430 kts | 242° |
| 2026-04-16 02:30 | -6.71370 | 112.73170 | 14442 ft | 427 kts | 255° |
| 2026-04-16 02:30 | -6.72029 | 112.70274 | 13718 ft | 425 kts | 257° |
| 2026-04-16 02:30 | -6.72652 | 112.67346 | 12960 ft | 424 kts | 257° |
| 2026-04-16 02:31 | -6.73257 | 112.64497 | 12240 ft | 411 kts | 257° |
| 2026-04-16 02:31 | -6.73836 | 112.61793 | 11879 ft | 386 kts | 257° |
| 2026-04-16 02:31 | -6.74388 | 112.59250 | 11701 ft | 358 kts | 257° |
| 2026-04-16 02:31 | -6.74906 | 112.56886 | 11581 ft | 333 kts | 257° |
| 2026-04-16 02:32 | -6.75393 | 112.54685 | 11452 ft | 311 kts | 257° |
| 2026-04-16 02:32 | -6.75849 | 112.52636 | 11323 ft | 292 kts | 257° |
| 2026-04-16 02:32 | -6.76386 | 112.50720 | 11191 ft | 275 kts | 247° |
| 2026-04-16 02:32 | -6.77388 | 112.49067 | 11057 ft | 285 kts | 223° |
| 2026-04-16 02:33 | -6.79047 | 112.48016 | 10736 ft | 281 kts | 195° |
| 2026-04-16 02:33 | -6.80934 | 112.47791 | 10400 ft | 270 kts | 173° |
| 2026-04-16 02:33 | -6.82780 | 112.48019 | 10065 ft | 262 kts | 172° |
| 2026-04-16 02:33 | -6.84563 | 112.48240 | 9769 ft | 254 kts | 172° |
| 2026-04-16 02:34 | -6.86319 | 112.48436 | 9478 ft | 256 kts | 173° |
| 2026-04-16 02:34 | -6.88161 | 112.48642 | 9149 ft | 269 kts | 173° |
| 2026-04-16 02:34 | -6.90030 | 112.48856 | 8823 ft | 268 kts | 172° |
| 2026-04-16 02:34 | -6.91859 | 112.49069 | 8505 ft | 260 kts | 172° |
| 2026-04-16 02:35 | -6.93629 | 112.49277 | 8201 ft | 252 kts | 172° |
| 2026-04-16 02:35 | -6.95363 | 112.49480 | 7905 ft | 246 kts | 172° |
| 2026-04-16 02:35 | -6.97110 | 112.49687 | 7614 ft | 262 kts | 172° |
| 2026-04-16 02:35 | -6.98923 | 112.49899 | 7478 ft | 261 kts | 172° |
| 2026-04-16 02:36 | -7.00740 | 112.50106 | 7479 ft | 265 kts | 172° |
| 2026-04-16 02:36 | -7.02601 | 112.50315 | 7478 ft | 265 kts | 172° |
| 2026-04-16 02:36 | -7.04436 | 112.50521 | 7479 ft | 265 kts | 172° |
| 2026-04-16 02:36 | -7.06271 | 112.50728 | 7479 ft | 264 kts | 172° |
| 2026-04-16 02:37 | -7.08106 | 112.50936 | 7493 ft | 264 kts | 172° |
| 2026-04-16 02:37 | -7.09945 | 112.51144 | 7541 ft | 264 kts | 172° |
| 2026-04-16 02:37 | -7.11787 | 112.51352 | 7467 ft | 262 kts | 172° |
| 2026-04-16 02:37 | -7.13588 | 112.51556 | 7218 ft | 259 kts | 172° |
| 2026-04-16 02:38 | -7.15404 | 112.51764 | 6860 ft | 260 kts | 171° |
| 2026-04-16 02:38 | -7.17192 | 112.51967 | 6565 ft | 259 kts | 171° |
| 2026-04-16 02:38 | -7.19005 | 112.52173 | 6241 ft | 259 kts | 172° |
| 2026-04-16 02:38 | -7.20791 | 112.52376 | 5927 ft | 258 kts | 172° |
| 2026-04-16 02:39 | -7.22589 | 112.52580 | 5626 ft | 257 kts | 171° |
| 2026-04-16 02:39 | -7.24356 | 112.52780 | 5313 ft | 256 kts | 172° |
| 2026-04-16 02:39 | -7.26137 | 112.52982 | 5034 ft | 254 kts | 171° |
| 2026-04-16 02:39 | -7.27891 | 112.53181 | 4892 ft | 246 kts | 172° |
| 2026-04-16 02:40 | -7.29570 | 112.53370 | 4768 ft | 238 kts | 171° |
| 2026-04-16 02:40 | -7.31187 | 112.53555 | 4624 ft | 231 kts | 170° |
| 2026-04-16 02:40 | -7.32737 | 112.53927 | 4481 ft | 229 kts | 153° |
| 2026-04-16 02:40 | -7.34055 | 112.54834 | 4347 ft | 228 kts | 135° |
| 2026-04-16 02:41 | -7.35110 | 112.56032 | 4045 ft | 228 kts | 123° |
| 2026-04-16 02:41 | -7.35883 | 112.57425 | 3759 ft | 227 kts | 111° |
| 2026-04-16 02:41 | -7.36336 | 112.58929 | 3490 ft | 225 kts | 99° |
| 2026-04-16 02:41 | -7.36457 | 112.60491 | 3182 ft | 222 kts | 88° |
| 2026-04-16 02:42 | -7.36241 | 112.62017 | 2880 ft | 218 kts | 76° |
| 2026-04-16 02:42 | -7.35854 | 112.63459 | 2598 ft | 210 kts | 76° |
| 2026-04-16 02:42 | -7.35642 | 112.64869 | 2368 ft | 198 kts | 88° |
| 2026-04-16 02:42 | -7.35758 | 112.66215 | 2119 ft | 189 kts | 102° |
| 2026-04-16 02:43 | -7.36119 | 112.67462 | 1877 ft | 181 kts | 104° |
| 2026-04-16 02:43 | -7.36365 | 112.68649 | 1700 ft | 161 kts | 98° |
| 2026-04-16 02:43 | -7.36515 | 112.69717 | 1436 ft | 146 kts | 98° |
| 2026-04-16 02:43 | -7.36674 | 112.70705 | 1274 ft | 142 kts | 99° |
| 2026-04-16 02:44 | -7.36840 | 112.71689 | 1092 ft | 142 kts | 98° |
| 2026-04-16 02:44 | -7.36995 | 112.72657 | 913 ft | 141 kts | 98° |
| 2026-04-16 02:44 | -7.37155 | 112.73634 | 732 ft | 141 kts | 99° |
| 2026-04-16 02:44 | -7.37318 | 112.74612 | 559 ft | 141 kts | 99° |
| 2026-04-16 02:45 | -7.37483 | 112.75589 | 387 ft | 140 kts | 99° |
| 2026-04-16 02:45 | -7.37639 | 112.76567 | 194 ft | 142 kts | 99° |
| 2026-04-16 02:45 | -7.37795 | 112.77537 | 17 ft | 138 kts | 100° |
| 2026-04-16 02:45 | -7.37933 | 112.78360 | 11 ft | 100 kts | 99° |
| 2026-04-16 02:46 | -7.38029 | 112.78944 | 9 ft | 63 kts | 99° |